createdAt,value
2023-04-30T00:01:31.198Z,97681.84
2023-04-30T00:03:58.665Z,97668.09
2023-04-30T00:06:28.244Z,97653.53
2023-04-30T00:08:55.828Z,97645.50
2023-04-30T00:11:22.827Z,97660.09
2023-04-30T00:13:49.969Z,97643.00
2023-04-30T00:16:17.172Z,97650.47
2023-04-30T00:18:44.438Z,97656.22
2023-04-30T00:21:11.588Z,97651.84
2023-04-30T00:23:38.581Z,97655.28
2023-04-30T00:26:06.726Z,97654.31
2023-04-30T00:28:33.707Z,97653.34
2023-04-30T00:31:00.827Z,97651.69
2023-04-30T00:33:30.911Z,97651.97
2023-04-30T00:35:57.796Z,97657.69
2023-04-30T00:38:24.696Z,97653.72
2023-04-30T00:40:51.609Z,97667.28
2023-04-30T00:43:18.750Z,97668.13
2023-04-30T00:45:46.937Z,97662.16
2023-04-30T00:48:13.805Z,97666.91
2023-04-30T00:50:41.668Z,97669.75
2023-04-30T00:53:08.634Z,97668.38
2023-04-30T00:55:35.806Z,97692.72
2023-04-30T00:58:02.891Z,97692.72
2023-04-30T01:00:30.204Z,97679.50
2023-04-30T01:02:57.795Z,97676.88
2023-04-30T01:05:24.789Z,97689.53
2023-04-30T01:07:51.969Z,97692.03
2023-04-30T01:10:21.871Z,97679.75
2023-04-30T01:13:07.187Z,97698.31
2023-04-30T01:16:00.530Z,97679.75
2023-04-30T01:18:34.288Z,97683.25
2023-04-30T01:21:04.819Z,97673.59
2023-04-30T01:23:35.004Z,97690.00
2023-04-30T01:26:24.947Z,97674.28
2023-04-30T01:28:53.745Z,97685.91
2023-04-30T01:31:21.137Z,97666.88
2023-04-30T01:33:48.188Z,97672.09
2023-04-30T01:36:32.071Z,97674.00
2023-04-30T01:39:33.993Z,97693.53
2023-04-30T01:42:22.407Z,97676.41
2023-04-30T01:45:02.545Z,97681.00
2023-04-30T01:47:39.787Z,97673.94
2023-04-30T01:50:09.508Z,97692.13
2023-04-30T01:52:43.578Z,97693.44
2023-04-30T01:55:38.450Z,97679.63
2023-04-30T01:58:13.086Z,97663.22
2023-04-30T02:00:40.130Z,97670.19
2023-04-30T02:03:10.151Z,97664.03
2023-04-30T02:05:37.159Z,97684.34
2023-04-30T02:08:04.498Z,97691.44
2023-04-30T02:10:31.642Z,97677.06
2023-04-30T02:12:58.658Z,97669.94
2023-04-30T02:15:28.624Z,97674.09
2023-04-30T02:17:55.840Z,97672.31
2023-04-30T02:20:22.915Z,97675.09
2023-04-30T02:22:49.890Z,97670.34
2023-04-30T02:25:16.839Z,97681.47
2023-04-30T02:27:43.739Z,97685.28
2023-04-30T02:30:10.884Z,97675.22
2023-04-30T02:32:37.909Z,97677.38
2023-04-30T02:35:05.213Z,97676.34
2023-04-30T02:37:32.181Z,97677.50
2023-04-30T02:39:59.186Z,97685.41
2023-04-30T02:42:26.161Z,97674.56
2023-04-30T02:44:53.195Z,97680.22
2023-04-30T02:47:20.177Z,97701.28
2023-04-30T02:49:47.243Z,97685.09
2023-04-30T02:52:14.220Z,97686.84
2023-04-30T02:54:41.303Z,97688.41
2023-04-30T02:57:08.357Z,97683.66
2023-04-30T02:59:35.296Z,97692.66
2023-04-30T03:02:02.152Z,97696.78
2023-04-30T03:04:29.198Z,97694.66
2023-04-30T03:06:56.084Z,97693.25
2023-04-30T03:09:22.946Z,97687.44
2023-04-30T03:11:49.897Z,97688.16
2023-04-30T03:14:16.954Z,97686.72
2023-04-30T03:16:43.702Z,97675.38
2023-04-30T03:19:10.602Z,97677.75
2023-04-30T03:21:39.419Z,97679.16
2023-04-30T03:24:06.925Z,97680.69
2023-04-30T03:26:34.085Z,97683.41
2023-04-30T03:29:02.351Z,97675.84
2023-04-30T03:31:29.538Z,97677.28
2023-04-30T03:33:56.597Z,97676.31
2023-04-30T03:36:23.749Z,97694.19
2023-04-30T03:38:50.720Z,97674.28
2023-04-30T03:41:17.617Z,97675.47
2023-04-30T03:43:44.698Z,97673.81
2023-04-30T03:46:11.666Z,97673.81
2023-04-30T03:48:38.750Z,97675.94
2023-04-30T03:51:05.975Z,97684.69
2023-04-30T03:53:33.028Z,97663.38
2023-04-30T03:55:59.968Z,97677.72
2023-04-30T03:58:29.766Z,97654.88
2023-04-30T04:00:56.835Z,97682.34
2023-04-30T04:03:24.006Z,97664.34
2023-04-30T04:05:50.893Z,97673.94
2023-04-30T04:08:17.727Z,97674.78
2023-04-30T04:10:44.567Z,97667.09
2023-04-30T04:13:11.696Z,97667.56
2023-04-30T04:15:40.906Z,97663.63
2023-04-30T04:18:08.786Z,97667.06
2023-04-30T04:20:35.820Z,97681.13
2023-04-30T04:23:02.747Z,97672.09
2023-04-30T04:25:29.718Z,97668.56
2023-04-30T04:27:57.128Z,97674.69
2023-04-30T04:30:24.090Z,97692.22
2023-04-30T04:32:54.255Z,97683.91
2023-04-30T04:35:21.720Z,97693.41
2023-04-30T04:37:48.744Z,97683.00
2023-04-30T04:40:15.607Z,97697.47
2023-04-30T04:42:42.431Z,97693.91
2023-04-30T04:45:10.115Z,97694.63
2023-04-30T04:47:37.802Z,97686.72
2023-04-30T04:50:04.902Z,97684.00
2023-04-30T04:52:31.819Z,97694.38
2023-04-30T04:54:58.721Z,97676.78
2023-04-30T04:57:26.085Z,97686.72
2023-04-30T04:59:53.288Z,97689.81
2023-04-30T05:02:20.295Z,97688.63
2023-04-30T05:04:47.525Z,97695.16
2023-04-30T05:07:14.387Z,97700.09
2023-04-30T05:09:41.216Z,97712.75
2023-04-30T05:12:08.241Z,97719.25
2023-04-30T05:14:35.084Z,97710.03
2023-04-30T05:17:01.950Z,97710.50
2023-04-30T05:19:28.891Z,97715.72
2023-04-30T05:21:55.596Z,97708.63
2023-04-30T05:24:22.446Z,97716.06
2023-04-30T05:26:49.236Z,97717.72
2023-04-30T05:29:16.071Z,97718.06
2023-04-30T05:31:43.062Z,97742.97
2023-04-30T05:34:11.274Z,97749.00
2023-04-30T05:36:38.092Z,97732.41
2023-04-30T05:39:05.163Z,97739.97
2023-04-30T05:41:32.053Z,97724.06
2023-04-30T05:43:59.077Z,97720.91
2023-04-30T05:46:25.999Z,97722.75
2023-04-30T05:48:53.016Z,97723.72
2023-04-30T05:51:19.899Z,97726.34
2023-04-30T05:53:46.754Z,97714.50
2023-04-30T05:56:13.565Z,97714.34
2023-04-30T05:58:40.923Z,97713.59
2023-04-30T06:01:11.270Z,97716.47
2023-04-30T06:03:38.664Z,97734.00
2023-04-30T06:06:05.752Z,97730.75
2023-04-30T06:08:32.745Z,97737.94
2023-04-30T06:10:59.668Z,97720.88
2023-04-30T06:13:29.198Z,97717.84
2023-04-30T06:15:56.226Z,97725.00
2023-04-30T06:18:23.324Z,97748.03
2023-04-30T06:20:53.814Z,97729.44
2023-04-30T06:23:21.047Z,97737.38
2023-04-30T06:25:48.040Z,97729.91
2023-04-30T06:28:15.060Z,97724.59
2023-04-30T06:30:41.950Z,97717.06
2023-04-30T06:33:14.550Z,97719.50
2023-04-30T06:35:41.613Z,97718.59
2023-04-30T06:38:08.585Z,97724.28
2023-04-30T06:40:36.064Z,97721.00
2023-04-30T06:43:02.891Z,97715.63
2023-04-30T06:45:30.104Z,97724.97
2023-04-30T06:47:57.914Z,97740.25
2023-04-30T06:50:25.066Z,97718.97
2023-04-30T06:52:51.958Z,97721.03
2023-04-30T06:55:19.215Z,97720.44
2023-04-30T06:57:46.223Z,97718.25
2023-04-30T07:00:15.471Z,97734.31
2023-04-30T07:02:42.722Z,97735.47
2023-04-30T07:05:11.518Z,97722.34
2023-04-30T07:07:39.013Z,97737.59
2023-04-30T07:10:06.381Z,97724.78
2023-04-30T07:12:33.534Z,97729.53
2023-04-30T07:15:00.794Z,97735.94
2023-04-30T07:17:31.152Z,97728.41
2023-04-30T07:19:58.061Z,97725.47
2023-04-30T07:22:25.363Z,97724.16
2023-04-30T07:24:54.029Z,97731.91
2023-04-30T07:27:21.441Z,97732.72
2023-04-30T07:29:48.690Z,97736.53
2023-04-30T07:32:16.685Z,97747.72
2023-04-30T07:34:43.884Z,97739.75
2023-04-30T07:37:12.613Z,97733.47
2023-04-30T07:39:39.915Z,97723.53
2023-04-30T07:42:07.312Z,97731.16
2023-04-30T07:44:34.539Z,97732.00
2023-04-30T07:47:01.553Z,97732.66
2023-04-30T07:49:28.992Z,97734.84
2023-04-30T07:51:56.734Z,97731.31
2023-04-30T07:54:24.711Z,97717.63
2023-04-30T07:56:51.895Z,97740.81
2023-04-30T07:59:21.721Z,97717.66
2023-04-30T08:01:48.691Z,97725.41
2023-04-30T08:04:15.789Z,97721.25
2023-04-30T08:06:43.060Z,97725.41
2023-04-30T08:09:10.263Z,97723.16
2023-04-30T08:11:37.269Z,97731.56
2023-04-30T08:14:04.921Z,97723.13
2023-04-30T08:16:34.147Z,97730.31
2023-04-30T08:19:01.547Z,97745.56
2023-04-30T08:21:28.568Z,97754.56
2023-04-30T08:23:58.791Z,97730.75
2023-04-30T08:26:29.256Z,97732.59
2023-04-30T08:28:58.023Z,97750.81
2023-04-30T08:31:26.253Z,97756.38
2023-04-30T08:33:53.337Z,97732.34
2023-04-30T08:36:23.507Z,97737.84
2023-04-30T08:38:50.561Z,97732.94
2023-04-30T08:41:17.763Z,97737.28
2023-04-30T08:43:49.597Z,97737.53
2023-04-30T08:46:18.492Z,97741.53
2023-04-30T08:48:49.701Z,97731.84
2023-04-30T08:51:19.823Z,97737.75
2023-04-30T08:53:48.315Z,97735.00
2023-04-30T08:56:15.644Z,97729.53
2023-04-30T08:58:45.000Z,97732.53
2023-04-30T09:01:17.148Z,97730.09
2023-04-30T09:03:45.189Z,97727.94
2023-04-30T09:06:17.635Z,97734.78
2023-04-30T09:08:51.595Z,97722.47
2023-04-30T09:11:32.196Z,97730.53
2023-04-30T09:14:03.275Z,97729.06
2023-04-30T09:16:50.616Z,97731.47
2023-04-30T09:19:31.092Z,97725.91
2023-04-30T09:21:58.627Z,97730.59
2023-04-30T09:24:32.553Z,97725.81
2023-04-30T09:27:17.893Z,97728.41
2023-04-30T09:29:45.656Z,97728.06
2023-04-30T09:32:15.277Z,97726.59
2023-04-30T09:34:43.795Z,97719.69
2023-04-30T09:37:12.220Z,97710.88
2023-04-30T09:39:57.909Z,97705.09
2023-04-30T09:42:25.375Z,97723.22
2023-04-30T09:44:57.102Z,97708.84
2023-04-30T09:47:25.767Z,97722.06
2023-04-30T09:49:53.742Z,97701.91
2023-04-30T09:52:21.786Z,97702.13
2023-04-30T09:54:50.045Z,97702.50
2023-04-30T09:57:22.489Z,97697.03
2023-04-30T09:59:51.310Z,97717.97
2023-04-30T10:02:20.228Z,97694.69
2023-04-30T10:04:49.947Z,97697.81
2023-04-30T10:07:22.211Z,97700.09
2023-04-30T10:10:08.104Z,97692.78
2023-04-30T10:12:40.847Z,97684.88
2023-04-30T10:15:17.748Z,97686.34
2023-04-30T10:17:48.025Z,97689.22
2023-04-30T10:20:15.776Z,97672.72
2023-04-30T10:22:43.977Z,97673.00
2023-04-30T10:25:13.629Z,97662.16
2023-04-30T10:27:40.330Z,97670.09
2023-04-30T10:30:08.335Z,97662.75
2023-04-30T10:32:42.379Z,97659.69
2023-04-30T10:35:14.990Z,97662.56
2023-04-30T10:38:02.924Z,97662.50
2023-04-30T10:40:29.748Z,97655.38
2023-04-30T10:42:56.734Z,97667.38
2023-04-30T10:45:39.563Z,97655.22
2023-04-30T10:48:07.209Z,97652.09
2023-04-30T10:50:40.774Z,97659.50
2023-04-30T10:53:13.582Z,97639.97
2023-04-30T10:55:51.260Z,97647.75
2023-04-30T10:58:25.569Z,97638.84
2023-04-30T11:01:02.992Z,97635.00
2023-04-30T11:03:30.855Z,97628.56
2023-04-30T11:05:58.512Z,97629.47
2023-04-30T11:08:38.667Z,97630.09
2023-04-30T11:11:05.843Z,97625.59
2023-04-30T11:13:44.887Z,97623.31
2023-04-30T11:16:16.579Z,97623.75
2023-04-30T11:18:46.873Z,97607.00
2023-04-30T11:21:14.258Z,97612.91
2023-04-30T11:23:43.270Z,97604.97
2023-04-30T11:26:10.560Z,97601.59
2023-04-30T11:28:38.364Z,97605.78
2023-04-30T11:31:06.017Z,97623.06
2023-04-30T11:33:34.106Z,97599.47
2023-04-30T11:36:01.563Z,97595.59
2023-04-30T11:38:34.143Z,97585.19
2023-04-30T11:41:01.935Z,97580.84
2023-04-30T11:43:31.074Z,97587.63
2023-04-30T11:46:11.230Z,97596.09
2023-04-30T11:48:42.770Z,97575.41
2023-04-30T11:51:19.418Z,97565.03
2023-04-30T11:53:50.741Z,97583.22
2023-04-30T11:56:24.586Z,97575.56
2023-04-30T11:58:56.042Z,97565.53
2023-04-30T12:01:27.163Z,97566.06
2023-04-30T12:03:57.561Z,97577.34
2023-04-30T12:06:25.516Z,97584.69
2023-04-30T12:08:59.513Z,97568.16
2023-04-30T12:11:31.320Z,97568.00
2023-04-30T12:14:03.559Z,97576.69
2023-04-30T12:16:44.442Z,97561.00
2023-04-30T12:19:12.143Z,97559.84
2023-04-30T12:21:40.332Z,97561.56
2023-04-30T12:24:07.430Z,97557.22
2023-04-30T12:26:40.041Z,97570.88
2023-04-30T12:29:16.167Z,97556.00
2023-04-30T12:31:43.437Z,97554.84
2023-04-30T12:34:12.732Z,97551.59
2023-04-30T12:36:42.958Z,97553.94
2023-04-30T12:39:11.710Z,97551.78
2023-04-30T12:42:00.447Z,97544.38
2023-04-30T12:44:28.118Z,97546.00
2023-04-30T12:47:00.807Z,97548.53
2023-04-30T12:49:29.126Z,97551.66
2023-04-30T12:52:04.244Z,97545.97
2023-04-30T12:54:32.840Z,97551.13
2023-04-30T12:57:04.881Z,97530.97
2023-04-30T12:59:37.015Z,97542.78
2023-04-30T13:02:08.142Z,97546.16
2023-04-30T13:04:36.241Z,97537.03
2023-04-30T13:07:03.669Z,97540.00
2023-04-30T13:09:31.205Z,97522.81
2023-04-30T13:11:58.022Z,97519.28
2023-04-30T13:14:24.819Z,97530.06
2023-04-30T13:16:51.633Z,97525.31
2023-04-30T13:19:18.312Z,97521.34
2023-04-30T13:21:45.012Z,97525.81
2023-04-30T13:24:12.060Z,97522.69
2023-04-30T13:26:39.377Z,97534.13
2023-04-30T13:29:06.107Z,97528.75
2023-04-30T13:31:33.017Z,97509.84
2023-04-30T13:33:59.701Z,97510.88
2023-04-30T13:36:27.206Z,97514.44
2023-04-30T13:38:54.176Z,97511.25
2023-04-30T13:41:22.129Z,97510.22
2023-04-30T13:43:49.429Z,97507.97
2023-04-30T13:46:16.801Z,97508.56
2023-04-30T13:48:43.787Z,97505.97
2023-04-30T13:51:10.396Z,97502.34
2023-04-30T13:53:37.450Z,97497.94
2023-04-30T13:56:04.581Z,97493.44
2023-04-30T13:58:31.493Z,97501.00
2023-04-30T14:00:58.208Z,97498.84
2023-04-30T14:03:25.084Z,97503.66
2023-04-30T14:05:52.022Z,97486.63
2023-04-30T14:08:20.548Z,97493.09
2023-04-30T14:10:48.915Z,97494.06
2023-04-30T14:13:15.789Z,97482.91
2023-04-30T14:15:42.735Z,97485.84
2023-04-30T14:18:09.530Z,97475.75
2023-04-30T14:20:36.453Z,97478.59
2023-04-30T14:23:04.084Z,97471.91
2023-04-30T14:25:30.936Z,97468.22
2023-04-30T14:27:57.733Z,97467.31
2023-04-30T14:30:24.697Z,97458.34
2023-04-30T14:32:51.851Z,97459.31
2023-04-30T14:35:18.931Z,97466.03
2023-04-30T14:37:45.683Z,97468.75
2023-04-30T14:40:13.279Z,97459.59
2023-04-30T14:42:40.249Z,97474.22
2023-04-30T14:45:09.989Z,97460.00
2023-04-30T14:47:36.760Z,97454.63
2023-04-30T14:50:04.556Z,97453.00
2023-04-30T14:52:31.362Z,97453.47
2023-04-30T14:54:58.177Z,97454.78
2023-04-30T14:57:25.082Z,97443.34
2023-04-30T14:59:55.494Z,97446.53
2023-04-30T15:02:22.569Z,97441.72
2023-04-30T15:04:49.547Z,97435.25
2023-04-30T15:07:16.456Z,97438.09
2023-04-30T15:09:44.901Z,97440.16
2023-04-30T15:12:11.737Z,97439.94
2023-04-30T15:14:38.650Z,97455.03
2023-04-30T15:17:05.422Z,97443.09
2023-04-30T15:19:32.299Z,97432.59
2023-04-30T15:21:59.629Z,97442.16
2023-04-30T15:24:26.361Z,97435.97
2023-04-30T15:26:55.024Z,97439.84
2023-04-30T15:29:21.945Z,97434.66
2023-04-30T15:31:52.106Z,97433.59
2023-04-30T15:34:19.056Z,97422.47
2023-04-30T15:36:46.649Z,97427.13
2023-04-30T15:39:13.895Z,97431.66
2023-04-30T15:41:40.983Z,97424.97
2023-04-30T15:44:08.064Z,97426.69
2023-04-30T15:46:35.603Z,97419.75
2023-04-30T15:49:03.143Z,97423.13
2023-04-30T15:51:32.035Z,97422.34
2023-04-30T15:53:59.208Z,97415.88
2023-04-30T15:56:26.896Z,97420.38
2023-04-30T15:58:54.380Z,97424.84
2023-04-30T16:01:24.001Z,97404.81
2023-04-30T16:03:50.984Z,97419.22
2023-04-30T16:06:18.732Z,97406.47
2023-04-30T16:08:46.508Z,97419.91
2023-04-30T16:11:17.263Z,97432.81
2023-04-30T16:13:44.375Z,97433.41
2023-04-30T16:16:11.432Z,97406.34
2023-04-30T16:18:38.357Z,97422.78
2023-04-30T16:21:09.756Z,97411.13
2023-04-30T16:23:38.205Z,97402.13
2023-04-30T16:26:05.594Z,97421.81
2023-04-30T16:28:32.527Z,97398.22
2023-04-30T16:30:59.907Z,97405.34
2023-04-30T16:33:27.114Z,97397.69
2023-04-30T16:35:55.512Z,97412.38
2023-04-30T16:38:24.767Z,97409.13
